Terminal Aerodrome Forecast
Issued by NWS

Home | Current Version | Previous Version | Graphics & Text | Print | Product List | Glossary On
Versions: 1 2 3 4 5 6 7 8 9 10 11 12 13 14 15 16 17 18 19 20 21
000
FTUS43 KABR 241200 AAA
TAFMBG
TAF AMD
KMBG 241252Z 2413/2512 14016G26KT P6SM SCT100 OVC250
     FM241330 14022G32KT P6SM VCTS SCT100CB OVC250
     FM241500 15026G36KT P6SM SCT100
     FM242300 12017KT P6SM SKC
     FM250700 36007KT P6SM SKC=

USA.gov is the U.S. government's official web portal to all federal, state and local government web resources and services.